sensor_id;sensor_type;location;lat;lon;timestamp;P1;durP1;ratioP1;P2;durP2;ratioP2
12441;SDS011;6285;48.804;9.220;2022-10-31T00:00:05;18.90;;;9.02;;
12441;SDS011;6285;48.804;9.220;2022-10-31T00:02:32;16.42;;;9.05;;
12441;SDS011;6285;48.804;9.220;2022-10-31T00:04:59;14.30;;;7.85;;
12441;SDS011;6285;48.804;9.220;2022-10-31T00:07:26;13.30;;;8.20;;
12441;SDS011;6285;48.804;9.220;2022-10-31T00:09:54;17.08;;;8.93;;
12441;SDS011;6285;48.804;9.220;2022-10-31T00:12:22;14.05;;;8.52;;
12441;SDS011;6285;48.804;9.220;2022-10-31T00:14:49;14.15;;;8.77;;
12441;SDS011;6285;48.804;9.220;2022-10-31T00:17:16;14.55;;;8.52;;
12441;SDS011;6285;48.804;9.220;2022-10-31T00:19:44;15.10;;;8.20;;
12441;SDS011;6285;48.804;9.220;2022-10-31T00:22:11;15.02;;;8.50;;
12441;SDS011;6285;48.804;9.220;2022-10-31T00:24:38;15.18;;;8.30;;
12441;SDS011;6285;48.804;9.220;2022-10-31T00:27:05;11.20;;;7.95;;
12441;SDS011;6285;48.804;9.220;2022-10-31T00:29:33;12.98;;;8.25;;
12441;SDS011;6285;48.804;9.220;2022-10-31T00:32:00;13.45;;;8.35;;
12441;SDS011;6285;48.804;9.220;2022-10-31T00:34:27;14.73;;;8.55;;
12441;SDS011;6285;48.804;9.220;2022-10-31T00:36:55;13.13;;;8.02;;
12441;SDS011;6285;48.804;9.220;2022-10-31T00:39:22;14.27;;;8.73;;
12441;SDS011;6285;48.804;9.220;2022-10-31T00:41:49;12.35;;;8.02;;
12441;SDS011;6285;48.804;9.220;2022-10-31T00:44:16;15.85;;;8.10;;
12441;SDS011;6285;48.804;9.220;2022-10-31T00:46:44;13.73;;;8.60;;
12441;SDS011;6285;48.804;9.220;2022-10-31T00:49:12;13.43;;;8.90;;
12441;SDS011;6285;48.804;9.220;2022-10-31T00:51:39;16.50;;;8.77;;
12441;SDS011;6285;48.804;9.220;2022-10-31T00:54:06;17.08;;;8.38;;
12441;SDS011;6285;48.804;9.220;2022-10-31T00:56:33;12.73;;;8.30;;
12441;SDS011;6285;48.804;9.220;2022-10-31T00:59:00;13.43;;;8.90;;
12441;SDS011;6285;48.804;9.220;2022-10-31T01:01:27;13.13;;;8.60;;
12441;SDS011;6285;48.804;9.220;2022-10-31T01:03:56;13.82;;;8.23;;
12441;SDS011;6285;48.804;9.220;2022-10-31T01:06:23;14.50;;;9.02;;
12441;SDS011;6285;48.804;9.220;2022-10-31T01:08:50;13.02;;;8.43;;
12441;SDS011;6285;48.804;9.220;2022-10-31T01:11:17;12.55;;;8.50;;
12441;SDS011;6285;48.804;9.220;2022-10-31T01:13:45;14.00;;;8.88;;
12441;SDS011;6285;48.804;9.220;2022-10-31T01:16:13;16.00;;;9.00;;
12441;SDS011;6285;48.804;9.220;2022-10-31T01:18:41;16.13;;;8.07;;
12441;SDS011;6285;48.804;9.220;2022-10-31T01:21:10;13.05;;;8.80;;
12441;SDS011;6285;48.804;9.220;2022-10-31T01:23:38;14.52;;;8.80;;
12441;SDS011;6285;48.804;9.220;2022-10-31T01:26:07;15.35;;;8.18;;
12441;SDS011;6285;48.804;9.220;2022-10-31T01:28:35;13.50;;;8.40;;
12441;SDS011;6285;48.804;9.220;2022-10-31T01:31:03;16.65;;;8.85;;
12441;SDS011;6285;48.804;9.220;2022-10-31T01:33:30;12.77;;;8.38;;
12441;SDS011;6285;48.804;9.220;2022-10-31T01:35:58;15.15;;;8.93;;
12441;SDS011;6285;48.804;9.220;2022-10-31T01:38:26;15.85;;;8.95;;
12441;SDS011;6285;48.804;9.220;2022-10-31T01:40:54;15.60;;;8.60;;
12441;SDS011;6285;48.804;9.220;2022-10-31T01:43:21;15.07;;;8.50;;
12441;SDS011;6285;48.804;9.220;2022-10-31T01:45:50;13.00;;;7.45;;
12441;SDS011;6285;48.804;9.220;2022-10-31T01:48:18;12.27;;;8.05;;
12441;SDS011;6285;48.804;9.220;2022-10-31T01:50:46;15.02;;;8.07;;
12441;SDS011;6285;48.804;9.220;2022-10-31T01:53:15;12.43;;;8.20;;
12441;SDS011;6285;48.804;9.220;2022-10-31T01:55:44;13.60;;;8.23;;
12441;SDS011;6285;48.804;9.220;2022-10-31T01:58:13;12.82;;;7.68;;
12441;SDS011;6285;48.804;9.220;2022-10-31T02:00:41;10.98;;;7.55;;
12441;SDS011;6285;48.804;9.220;2022-10-31T02:03:10;14.75;;;7.95;;
12441;SDS011;6285;48.804;9.220;2022-10-31T02:05:37;12.38;;;7.30;;
12441;SDS011;6285;48.804;9.220;2022-10-31T02:08:06;11.40;;;7.20;;
12441;SDS011;6285;48.804;9.220;2022-10-31T02:10:35;12.15;;;7.40;;
12441;SDS011;6285;48.804;9.220;2022-10-31T02:13:05;10.98;;;7.40;;
12441;SDS011;6285;48.804;9.220;2022-10-31T02:15:33;15.90;;;6.97;;
12441;SDS011;6285;48.804;9.220;2022-10-31T02:18:02;12.77;;;7.22;;
12441;SDS011;6285;48.804;9.220;2022-10-31T02:20:31;11.18;;;6.90;;
12441;SDS011;6285;48.804;9.220;2022-10-31T02:26:12;10.20;;;6.93;;
12441;SDS011;6285;48.804;9.220;2022-10-31T02:31:27;12.30;;;6.35;;
12441;SDS011;6285;48.804;9.220;2022-10-31T02:33:59;10.05;;;6.70;;
12441;SDS011;6285;48.804;9.220;2022-10-31T02:36:35;12.00;;;6.97;;
12441;SDS011;6285;48.804;9.220;2022-10-31T02:39:06;14.50;;;6.40;;
12441;SDS011;6285;48.804;9.220;2022-10-31T02:41:40;11.55;;;6.60;;
12441;SDS011;6285;48.804;9.220;2022-10-31T02:44:08;10.27;;;6.43;;
12441;SDS011;6285;48.804;9.220;2022-10-31T02:46:40;9.63;;;6.28;;
12441;SDS011;6285;48.804;9.220;2022-10-31T02:49:11;11.65;;;6.97;;
12441;SDS011;6285;48.804;9.220;2022-10-31T02:51:41;12.95;;;6.13;;
12441;SDS011;6285;48.804;9.220;2022-10-31T02:54:17;8.93;;;6.65;;
12441;SDS011;6285;48.804;9.220;2022-10-31T02:56:44;12.48;;;6.85;;
12441;SDS011;6285;48.804;9.220;2022-10-31T02:59:12;10.40;;;6.32;;
12441;SDS011;6285;48.804;9.220;2022-10-31T03:01:44;12.85;;;6.60;;
12441;SDS011;6285;48.804;9.220;2022-10-31T03:04:17;11.10;;;6.55;;
12441;SDS011;6285;48.804;9.220;2022-10-31T03:06:50;11.32;;;6.22;;
12441;SDS011;6285;48.804;9.220;2022-10-31T03:09:22;13.18;;;6.53;;
12441;SDS011;6285;48.804;9.220;2022-10-31T03:11:53;10.68;;;6.82;;
12441;SDS011;6285;48.804;9.220;2022-10-31T03:14:24;11.90;;;6.60;;
12441;SDS011;6285;48.804;9.220;2022-10-31T03:16:55;9.50;;;6.57;;
12441;SDS011;6285;48.804;9.220;2022-10-31T03:19:25;8.93;;;6.28;;
12441;SDS011;6285;48.804;9.220;2022-10-31T03:21:54;10.32;;;7.03;;
12441;SDS011;6285;48.804;9.220;2022-10-31T03:24:24;9.90;;;6.57;;
12441;SDS011;6285;48.804;9.220;2022-10-31T03:26:53;11.48;;;6.47;;
12441;SDS011;6285;48.804;9.220;2022-10-31T03:29:22;11.88;;;6.80;;
12441;SDS011;6285;48.804;9.220;2022-10-31T03:31:52;10.13;;;6.40;;
12441;SDS011;6285;48.804;9.220;2022-10-31T03:34:23;13.52;;;6.63;;
12441;SDS011;6285;48.804;9.220;2022-10-31T03:36:51;14.40;;;6.93;;
12441;SDS011;6285;48.804;9.220;2022-10-31T03:39:21;10.68;;;6.88;;
12441;SDS011;6285;48.804;9.220;2022-10-31T03:41:50;10.48;;;6.55;;
12441;SDS011;6285;48.804;9.220;2022-10-31T03:44:20;11.57;;;6.82;;
12441;SDS011;6285;48.804;9.220;2022-10-31T03:46:48;11.77;;;6.30;;
12441;SDS011;6285;48.804;9.220;2022-10-31T03:49:17;17.00;;;7.47;;
12441;SDS011;6285;48.804;9.220;2022-10-31T03:51:45;12.98;;;6.50;;
12441;SDS011;6285;48.804;9.220;2022-10-31T03:54:16;11.88;;;6.40;;
12441;SDS011;6285;48.804;9.220;2022-10-31T03:56:48;9.55;;;6.10;;
12441;SDS011;6285;48.804;9.220;2022-10-31T03:59:17;10.45;;;6.43;;
12441;SDS011;6285;48.804;9.220;2022-10-31T04:01:48;11.43;;;6.18;;
12441;SDS011;6285;48.804;9.220;2022-10-31T04:04:17;10.20;;;6.47;;
12441;SDS011;6285;48.804;9.220;2022-10-31T04:06:45;10.82;;;6.65;;
12441;SDS011;6285;48.804;9.220;2022-10-31T04:09:13;11.88;;;7.63;;
12441;SDS011;6285;48.804;9.220;2022-10-31T04:11:42;14.57;;;7.15;;
12441;SDS011;6285;48.804;9.220;2022-10-31T04:14:11;11.20;;;7.30;;
12441;SDS011;6285;48.804;9.220;2022-10-31T04:16:39;11.55;;;6.50;;
12441;SDS011;6285;48.804;9.220;2022-10-31T04:19:07;9.85;;;6.82;;
12441;SDS011;6285;48.804;9.220;2022-10-31T04:21:36;12.07;;;7.45;;
12441;SDS011;6285;48.804;9.220;2022-10-31T04:24:03;11.60;;;7.07;;
12441;SDS011;6285;48.804;9.220;2022-10-31T04:26:30;10.80;;;6.70;;
12441;SDS011;6285;48.804;9.220;2022-10-31T04:28:57;13.60;;;7.45;;
12441;SDS011;6285;48.804;9.220;2022-10-31T04:31:24;15.15;;;7.38;;
12441;SDS011;6285;48.804;9.220;2022-10-31T04:33:52;12.32;;;7.80;;
12441;SDS011;6285;48.804;9.220;2022-10-31T04:36:19;14.27;;;6.57;;
12441;SDS011;6285;48.804;9.220;2022-10-31T04:38:47;10.50;;;6.80;;
12441;SDS011;6285;48.804;9.220;2022-10-31T04:41:14;11.48;;;6.95;;
12441;SDS011;6285;48.804;9.220;2022-10-31T04:43:42;13.57;;;7.38;;
12441;SDS011;6285;48.804;9.220;2022-10-31T04:46:09;11.50;;;7.07;;
12441;SDS011;6285;48.804;9.220;2022-10-31T04:48:36;13.65;;;6.45;;
12441;SDS011;6285;48.804;9.220;2022-10-31T04:51:03;12.20;;;6.28;;
12441;SDS011;6285;48.804;9.220;2022-10-31T04:53:30;14.43;;;6.38;;
12441;SDS011;6285;48.804;9.220;2022-10-31T04:55:58;9.45;;;6.70;;
12441;SDS011;6285;48.804;9.220;2022-10-31T04:58:26;9.95;;;6.20;;
12441;SDS011;6285;48.804;9.220;2022-10-31T05:00:53;11.75;;;6.90;;
12441;SDS011;6285;48.804;9.220;2022-10-31T05:03:20;13.02;;;6.22;;
12441;SDS011;6285;48.804;9.220;2022-10-31T05:05:48;8.93;;;6.18;;
12441;SDS011;6285;48.804;9.220;2022-10-31T05:08:15;9.95;;;6.18;;
12441;SDS011;6285;48.804;9.220;2022-10-31T05:10:42;8.60;;;6.35;;
12441;SDS011;6285;48.804;9.220;2022-10-31T05:13:10;9.80;;;6.25;;
12441;SDS011;6285;48.804;9.220;2022-10-31T05:15:39;11.73;;;6.70;;
12441;SDS011;6285;48.804;9.220;2022-10-31T05:18:06;10.88;;;6.32;;
12441;SDS011;6285;48.804;9.220;2022-10-31T05:20:34;9.68;;;6.07;;
12441;SDS011;6285;48.804;9.220;2022-10-31T05:23:01;11.52;;;6.47;;
12441;SDS011;6285;48.804;9.220;2022-10-31T05:25:28;8.75;;;6.20;;
12441;SDS011;6285;48.804;9.220;2022-10-31T05:27:55;12.88;;;6.72;;
12441;SDS011;6285;48.804;9.220;2022-10-31T05:30:25;8.38;;;5.95;;
12441;SDS011;6285;48.804;9.220;2022-10-31T05:32:52;8.60;;;6.00;;
12441;SDS011;6285;48.804;9.220;2022-10-31T05:35:20;10.02;;;6.00;;
12441;SDS011;6285;48.804;9.220;2022-10-31T05:37:47;6.97;;;5.82;;
12441;SDS011;6285;48.804;9.220;2022-10-31T05:40:15;9.57;;;5.97;;
12441;SDS011;6285;48.804;9.220;2022-10-31T05:42:43;8.50;;;5.80;;
12441;SDS011;6285;48.804;9.220;2022-10-31T05:45:10;11.75;;;6.15;;
12441;SDS011;6285;48.804;9.220;2022-10-31T05:47:40;8.93;;;5.53;;
12441;SDS011;6285;48.804;9.220;2022-10-31T05:50:08;7.55;;;5.50;;
12441;SDS011;6285;48.804;9.220;2022-10-31T05:52:35;9.38;;;5.88;;
12441;SDS011;6285;48.804;9.220;2022-10-31T05:55:02;10.45;;;5.95;;
12441;SDS011;6285;48.804;9.220;2022-10-31T05:57:31;9.00;;;5.82;;
12441;SDS011;6285;48.804;9.220;2022-10-31T05:59:58;11.82;;;6.30;;
12441;SDS011;6285;48.804;9.220;2022-10-31T06:02:26;8.77;;;6.03;;
12441;SDS011;6285;48.804;9.220;2022-10-31T06:04:58;9.80;;;5.80;;
12441;SDS011;6285;48.804;9.220;2022-10-31T06:07:25;9.82;;;6.47;;
12441;SDS011;6285;48.804;9.220;2022-10-31T06:09:52;11.68;;;6.32;;
12441;SDS011;6285;48.804;9.220;2022-10-31T06:12:19;10.77;;;6.40;;
12441;SDS011;6285;48.804;9.220;2022-10-31T06:14:47;13.25;;;6.45;;
12441;SDS011;6285;48.804;9.220;2022-10-31T06:17:14;10.95;;;6.18;;
12441;SDS011;6285;48.804;9.220;2022-10-31T06:19:41;11.88;;;5.95;;
12441;SDS011;6285;48.804;9.220;2022-10-31T06:22:10;10.98;;;5.93;;
12441;SDS011;6285;48.804;9.220;2022-10-31T06:24:39;8.55;;;5.90;;
12441;SDS011;6285;48.804;9.220;2022-10-31T06:27:06;10.52;;;5.70;;
12441;SDS011;6285;48.804;9.220;2022-10-31T06:29:33;10.18;;;5.95;;
12441;SDS011;6285;48.804;9.220;2022-10-31T06:32:00;10.00;;;5.47;;
12441;SDS011;6285;48.804;9.220;2022-10-31T06:34:27;8.02;;;5.60;;
12441;SDS011;6285;48.804;9.220;2022-10-31T06:36:54;10.43;;;5.93;;
12441;SDS011;6285;48.804;9.220;2022-10-31T06:39:23;9.43;;;5.90;;
12441;SDS011;6285;48.804;9.220;2022-10-31T06:41:50;11.88;;;5.43;;
12441;SDS011;6285;48.804;9.220;2022-10-31T06:44:17;12.88;;;6.15;;
12441;SDS011;6285;48.804;9.220;2022-10-31T06:46:45;13.48;;;6.30;;
12441;SDS011;6285;48.804;9.220;2022-10-31T06:49:13;13.38;;;6.00;;
12441;SDS011;6285;48.804;9.220;2022-10-31T06:51:40;12.05;;;6.28;;
12441;SDS011;6285;48.804;9.220;2022-10-31T06:54:07;11.00;;;6.30;;
12441;SDS011;6285;48.804;9.220;2022-10-31T06:56:36;14.80;;;6.13;;
12441;SDS011;6285;48.804;9.220;2022-10-31T06:59:03;13.88;;;6.05;;
12441;SDS011;6285;48.804;9.220;2022-10-31T07:01:30;15.10;;;6.38;;
12441;SDS011;6285;48.804;9.220;2022-10-31T07:03:58;12.20;;;5.95;;
12441;SDS011;6285;48.804;9.220;2022-10-31T07:06:25;14.95;;;6.13;;
12441;SDS011;6285;48.804;9.220;2022-10-31T07:08:52;10.27;;;6.15;;
12441;SDS011;6285;48.804;9.220;2022-10-31T07:11:19;12.65;;;5.82;;
12441;SDS011;6285;48.804;9.220;2022-10-31T07:13:48;11.68;;;5.75;;
12441;SDS011;6285;48.804;9.220;2022-10-31T07:16:15;8.77;;;5.57;;
12441;SDS011;6285;48.804;9.220;2022-10-31T07:18:42;10.73;;;5.65;;
12441;SDS011;6285;48.804;9.220;2022-10-31T07:21:09;10.93;;;5.50;;
12441;SDS011;6285;48.804;9.220;2022-10-31T07:23:36;10.50;;;5.88;;
12441;SDS011;6285;48.804;9.220;2022-10-31T07:26:03;10.30;;;5.53;;
12441;SDS011;6285;48.804;9.220;2022-10-31T07:28:30;14.57;;;5.85;;
12441;SDS011;6285;48.804;9.220;2022-10-31T07:30:59;13.50;;;6.07;;
12441;SDS011;6285;48.804;9.220;2022-10-31T07:33:26;9.23;;;5.07;;
12441;SDS011;6285;48.804;9.220;2022-10-31T07:35:53;10.38;;;6.15;;
12441;SDS011;6285;48.804;9.220;2022-10-31T07:38:20;11.02;;;5.75;;
12441;SDS011;6285;48.804;9.220;2022-10-31T07:40:49;8.07;;;5.35;;
12441;SDS011;6285;48.804;9.220;2022-10-31T07:43:16;12.57;;;5.55;;
12441;SDS011;6285;48.804;9.220;2022-10-31T07:45:43;7.55;;;5.50;;
12441;SDS011;6285;48.804;9.220;2022-10-31T07:49:10;10.35;;;5.35;;
12441;SDS011;6285;48.804;9.220;2022-10-31T07:51:37;9.52;;;5.50;;
12441;SDS011;6285;48.804;9.220;2022-10-31T07:54:04;10.52;;;5.25;;
12441;SDS011;6285;48.804;9.220;2022-10-31T07:56:31;9.85;;;5.80;;
12441;SDS011;6285;48.804;9.220;2022-10-31T07:58:58;9.50;;;5.80;;
12441;SDS011;6285;48.804;9.220;2022-10-31T08:01:25;9.73;;;5.68;;
12441;SDS011;6285;48.804;9.220;2022-10-31T08:03:53;8.95;;;5.40;;
12441;SDS011;6285;48.804;9.220;2022-10-31T08:06:21;10.95;;;5.28;;
12441;SDS011;6285;48.804;9.220;2022-10-31T08:08:48;13.07;;;5.30;;
12441;SDS011;6285;48.804;9.220;2022-10-31T08:11:15;12.48;;;6.38;;
12441;SDS011;6285;48.804;9.220;2022-10-31T08:13:42;10.65;;;5.78;;
12441;SDS011;6285;48.804;9.220;2022-10-31T08:16:09;11.20;;;5.50;;
12441;SDS011;6285;48.804;9.220;2022-10-31T08:18:36;12.43;;;5.88;;
12441;SDS011;6285;48.804;9.220;2022-10-31T08:21:03;9.88;;;5.75;;
12441;SDS011;6285;48.804;9.220;2022-10-31T08:23:31;13.13;;;6.18;;
12441;SDS011;6285;48.804;9.220;2022-10-31T08:25:58;10.05;;;5.75;;
12441;SDS011;6285;48.804;9.220;2022-10-31T08:28:25;9.35;;;5.22;;
12441;SDS011;6285;48.804;9.220;2022-10-31T08:30:52;9.93;;;5.32;;
12441;SDS011;6285;48.804;9.220;2022-10-31T08:33:19;11.32;;;6.13;;
12441;SDS011;6285;48.804;9.220;2022-10-31T08:35:46;11.15;;;5.35;;
12441;SDS011;6285;48.804;9.220;2022-10-31T08:38:14;8.80;;;5.65;;
12441;SDS011;6285;48.804;9.220;2022-10-31T08:40:43;11.30;;;6.38;;
12441;SDS011;6285;48.804;9.220;2022-10-31T08:43:14;11.80;;;6.20;;
12441;SDS011;6285;48.804;9.220;2022-10-31T08:48:12;8.88;;;5.50;;
12441;SDS011;6285;48.804;9.220;2022-10-31T08:50:40;12.05;;;5.68;;
12441;SDS011;6285;48.804;9.220;2022-10-31T08:53:07;15.48;;;5.93;;
12441;SDS011;6285;48.804;9.220;2022-10-31T08:55:36;11.65;;;5.53;;
12441;SDS011;6285;48.804;9.220;2022-10-31T08:58:07;11.55;;;6.15;;
12441;SDS011;6285;48.804;9.220;2022-10-31T09:00:36;14.38;;;5.97;;
12441;SDS011;6285;48.804;9.220;2022-10-31T09:03:04;9.77;;;6.03;;
12441;SDS011;6285;48.804;9.220;2022-10-31T09:05:32;11.85;;;5.63;;
12441;SDS011;6285;48.804;9.220;2022-10-31T09:08:00;8.88;;;5.35;;
12441;SDS011;6285;48.804;9.220;2022-10-31T09:10:27;12.70;;;5.72;;
12441;SDS011;6285;48.804;9.220;2022-10-31T09:12:55;9.35;;;6.32;;
12441;SDS011;6285;48.804;9.220;2022-10-31T09:15:23;12.50;;;6.15;;
12441;SDS011;6285;48.804;9.220;2022-10-31T09:17:51;13.82;;;5.50;;
12441;SDS011;6285;48.804;9.220;2022-10-31T09:20:18;9.90;;;6.00;;
12441;SDS011;6285;48.804;9.220;2022-10-31T09:22:45;10.00;;;4.88;;
12441;SDS011;6285;48.804;9.220;2022-10-31T09:25:12;12.02;;;5.60;;
12441;SDS011;6285;48.804;9.220;2022-10-31T09:27:39;14.23;;;6.03;;
12441;SDS011;6285;48.804;9.220;2022-10-31T09:30:07;12.10;;;6.10;;
12441;SDS011;6285;48.804;9.220;2022-10-31T09:32:35;9.10;;;5.57;;
12441;SDS011;6285;48.804;9.220;2022-10-31T09:35:02;10.00;;;5.97;;
12441;SDS011;6285;48.804;9.220;2022-10-31T09:37:29;9.15;;;6.13;;
12441;SDS011;6285;48.804;9.220;2022-10-31T09:39:57;11.35;;;6.60;;
12441;SDS011;6285;48.804;9.220;2022-10-31T09:42:32;13.95;;;6.43;;
12441;SDS011;6285;48.804;9.220;2022-10-31T09:45:03;11.50;;;6.35;;
12441;SDS011;6285;48.804;9.220;2022-10-31T09:47:37;13.75;;;6.35;;
12441;SDS011;6285;48.804;9.220;2022-10-31T09:50:12;9.35;;;5.97;;
12441;SDS011;6285;48.804;9.220;2022-10-31T09:52:41;13.05;;;5.85;;
12441;SDS011;6285;48.804;9.220;2022-10-31T09:55:13;11.05;;;6.22;;
12441;SDS011;6285;48.804;9.220;2022-10-31T09:57:42;12.85;;;6.40;;
12441;SDS011;6285;48.804;9.220;2022-10-31T10:00:14;11.02;;;6.10;;
12441;SDS011;6285;48.804;9.220;2022-10-31T10:02:44;12.55;;;6.30;;
12441;SDS011;6285;48.804;9.220;2022-10-31T10:05:14;11.65;;;5.97;;
12441;SDS011;6285;48.804;9.220;2022-10-31T10:07:44;17.10;;;7.30;;
12441;SDS011;6285;48.804;9.220;2022-10-31T10:10:14;10.93;;;5.60;;
12441;SDS011;6285;48.804;9.220;2022-10-31T10:12:47;11.55;;;5.95;;
12441;SDS011;6285;48.804;9.220;2022-10-31T10:15:27;14.38;;;6.68;;
12441;SDS011;6285;48.804;9.220;2022-10-31T10:17:59;12.30;;;7.43;;
12441;SDS011;6285;48.804;9.220;2022-10-31T10:20:31;11.27;;;6.55;;
12441;SDS011;6285;48.804;9.220;2022-10-31T10:23:06;8.57;;;6.05;;
12441;SDS011;6285;48.804;9.220;2022-10-31T10:25:44;10.38;;;6.18;;
12441;SDS011;6285;48.804;9.220;2022-10-31T10:28:14;11.98;;;6.78;;
12441;SDS011;6285;48.804;9.220;2022-10-31T10:30:48;11.95;;;6.40;;
12441;SDS011;6285;48.804;9.220;2022-10-31T10:33:20;10.90;;;6.53;;
12441;SDS011;6285;48.804;9.220;2022-10-31T10:35:48;11.52;;;6.35;;
12441;SDS011;6285;48.804;9.220;2022-10-31T10:38:18;9.15;;;6.10;;
12441;SDS011;6285;48.804;9.220;2022-10-31T10:40:46;10.77;;;5.78;;
12441;SDS011;6285;48.804;9.220;2022-10-31T10:43:21;12.23;;;6.50;;
12441;SDS011;6285;48.804;9.220;2022-10-31T10:45:49;12.77;;;6.18;;
12441;SDS011;6285;48.804;9.220;2022-10-31T10:48:40;10.60;;;6.47;;
12441;SDS011;6285;48.804;9.220;2022-10-31T10:51:10;12.25;;;6.60;;
12441;SDS011;6285;48.804;9.220;2022-10-31T10:53:44;12.38;;;6.57;;
12441;SDS011;6285;48.804;9.220;2022-10-31T10:56:30;10.38;;;6.05;;
12441;SDS011;6285;48.804;9.220;2022-10-31T10:59:00;13.10;;;6.47;;
12441;SDS011;6285;48.804;9.220;2022-10-31T11:01:28;12.85;;;6.70;;
12441;SDS011;6285;48.804;9.220;2022-10-31T11:03:56;11.68;;;6.38;;
12441;SDS011;6285;48.804;9.220;2022-10-31T11:06:23;11.55;;;6.25;;
12441;SDS011;6285;48.804;9.220;2022-10-31T11:08:51;11.35;;;6.78;;
12441;SDS011;6285;48.804;9.220;2022-10-31T11:11:25;11.30;;;7.07;;
12441;SDS011;6285;48.804;9.220;2022-10-31T11:13:56;14.35;;;7.35;;
12441;SDS011;6285;48.804;9.220;2022-10-31T11:16:28;13.70;;;7.70;;
12441;SDS011;6285;48.804;9.220;2022-10-31T11:19:06;12.07;;;8.43;;
12441;SDS011;6285;48.804;9.220;2022-10-31T11:21:34;12.65;;;7.38;;
12441;SDS011;6285;48.804;9.220;2022-10-31T11:24:01;8.57;;;6.32;;
12441;SDS011;6285;48.804;9.220;2022-10-31T11:26:29;10.55;;;6.13;;
12441;SDS011;6285;48.804;9.220;2022-10-31T11:28:56;12.98;;;6.35;;
12441;SDS011;6285;48.804;9.220;2022-10-31T11:31:23;10.95;;;5.88;;
12441;SDS011;6285;48.804;9.220;2022-10-31T11:33:52;10.23;;;6.68;;
12441;SDS011;6285;48.804;9.220;2022-10-31T11:36:25;9.50;;;5.93;;
12441;SDS011;6285;48.804;9.220;2022-10-31T11:38:53;12.07;;;6.05;;
12441;SDS011;6285;48.804;9.220;2022-10-31T11:41:24;11.90;;;6.35;;
12441;SDS011;6285;48.804;9.220;2022-10-31T11:43:53;10.07;;;5.72;;
12441;SDS011;6285;48.804;9.220;2022-10-31T11:46:22;10.57;;;6.18;;
12441;SDS011;6285;48.804;9.220;2022-10-31T11:48:51;12.10;;;5.75;;
12441;SDS011;6285;48.804;9.220;2022-10-31T11:51:20;13.98;;;6.50;;
12441;SDS011;6285;48.804;9.220;2022-10-31T11:53:51;10.05;;;5.80;;
12441;SDS011;6285;48.804;9.220;2022-10-31T11:56:19;9.48;;;5.50;;
12441;SDS011;6285;48.804;9.220;2022-10-31T11:58:54;12.68;;;6.00;;
12441;SDS011;6285;48.804;9.220;2022-10-31T12:01:23;11.85;;;5.90;;
12441;SDS011;6285;48.804;9.220;2022-10-31T12:03:53;16.35;;;8.73;;
12441;SDS011;6285;48.804;9.220;2022-10-31T12:06:22;12.05;;;6.78;;
12441;SDS011;6285;48.804;9.220;2022-10-31T12:08:51;9.50;;;5.78;;
12441;SDS011;6285;48.804;9.220;2022-10-31T12:11:23;11.57;;;6.00;;
12441;SDS011;6285;48.804;9.220;2022-10-31T12:13:58;11.15;;;6.68;;
12441;SDS011;6285;48.804;9.220;2022-10-31T12:16:33;15.85;;;6.88;;
12441;SDS011;6285;48.804;9.220;2022-10-31T12:19:03;11.82;;;6.43;;
12441;SDS011;6285;48.804;9.220;2022-10-31T12:21:39;13.57;;;6.22;;
12441;SDS011;6285;48.804;9.220;2022-10-31T12:24:25;14.52;;;6.47;;
12441;SDS011;6285;48.804;9.220;2022-10-31T12:27:03;10.70;;;6.68;;
12441;SDS011;6285;48.804;9.220;2022-10-31T12:29:41;13.30;;;6.65;;
12441;SDS011;6285;48.804;9.220;2022-10-31T12:32:20;13.95;;;7.65;;
12441;SDS011;6285;48.804;9.220;2022-10-31T12:34:58;18.08;;;8.05;;
12441;SDS011;6285;48.804;9.220;2022-10-31T12:37:43;10.55;;;6.45;;
12441;SDS011;6285;48.804;9.220;2022-10-31T12:40:21;10.70;;;6.32;;
12441;SDS011;6285;48.804;9.220;2022-10-31T12:43:01;18.00;;;6.90;;
12441;SDS011;6285;48.804;9.220;2022-10-31T12:45:41;13.45;;;7.88;;
12441;SDS011;6285;48.804;9.220;2022-10-31T12:48:32;16.33;;;8.90;;
12441;SDS011;6285;48.804;9.220;2022-10-31T12:51:02;13.15;;;7.82;;
12441;SDS011;6285;48.804;9.220;2022-10-31T12:53:41;16.27;;;7.90;;
12441;SDS011;6285;48.804;9.220;2022-10-31T12:56:27;14.43;;;8.35;;
12441;SDS011;6285;48.804;9.220;2022-10-31T12:58:59;16.27;;;8.10;;
12441;SDS011;6285;48.804;9.220;2022-10-31T13:01:30;13.10;;;6.78;;
12441;SDS011;6285;48.804;9.220;2022-10-31T13:04:01;12.30;;;6.90;;
12441;SDS011;6285;48.804;9.220;2022-10-31T13:06:32;13.55;;;6.88;;
12441;SDS011;6285;48.804;9.220;2022-10-31T13:09:02;12.60;;;6.40;;
12441;SDS011;6285;48.804;9.220;2022-10-31T13:11:35;11.93;;;6.72;;
12441;SDS011;6285;48.804;9.220;2022-10-31T13:14:09;11.38;;;7.28;;
12441;SDS011;6285;48.804;9.220;2022-10-31T13:16:40;11.52;;;7.38;;
12441;SDS011;6285;48.804;9.220;2022-10-31T13:19:10;11.98;;;6.57;;
12441;SDS011;6285;48.804;9.220;2022-10-31T13:21:45;12.38;;;6.32;;
12441;SDS011;6285;48.804;9.220;2022-10-31T13:24:20;10.88;;;7.00;;
12441;SDS011;6285;48.804;9.220;2022-10-31T13:26:52;13.55;;;7.57;;
12441;SDS011;6285;48.804;9.220;2022-10-31T13:29:22;11.60;;;6.32;;
12441;SDS011;6285;48.804;9.220;2022-10-31T13:31:52;12.65;;;6.20;;
12441;SDS011;6285;48.804;9.220;2022-10-31T13:34:22;13.70;;;6.60;;
12441;SDS011;6285;48.804;9.220;2022-10-31T13:36:55;12.23;;;6.55;;
12441;SDS011;6285;48.804;9.220;2022-10-31T13:39:31;12.77;;;5.80;;
12441;SDS011;6285;48.804;9.220;2022-10-31T13:42:11;12.48;;;6.78;;
12441;SDS011;6285;48.804;9.220;2022-10-31T13:44:41;16.95;;;7.03;;
12441;SDS011;6285;48.804;9.220;2022-10-31T13:47:21;14.93;;;9.43;;
12441;SDS011;6285;48.804;9.220;2022-10-31T13:49:48;13.90;;;7.68;;
12441;SDS011;6285;48.804;9.220;2022-10-31T13:52:16;15.90;;;8.30;;
12441;SDS011;6285;48.804;9.220;2022-10-31T13:54:44;15.40;;;7.95;;
12441;SDS011;6285;48.804;9.220;2022-10-31T13:57:16;16.08;;;7.72;;
12441;SDS011;6285;48.804;9.220;2022-10-31T13:59:49;12.02;;;7.15;;
12441;SDS011;6285;48.804;9.220;2022-10-31T14:02:21;13.77;;;7.80;;
12441;SDS011;6285;48.804;9.220;2022-10-31T14:04:53;14.32;;;8.13;;
12441;SDS011;6285;48.804;9.220;2022-10-31T14:07:24;13.27;;;6.38;;
12441;SDS011;6285;48.804;9.220;2022-10-31T14:09:53;12.52;;;6.88;;
12441;SDS011;6285;48.804;9.220;2022-10-31T14:12:25;12.38;;;6.55;;
12441;SDS011;6285;48.804;9.220;2022-10-31T14:14:55;14.48;;;6.68;;
12441;SDS011;6285;48.804;9.220;2022-10-31T14:17:25;18.08;;;7.05;;
12441;SDS011;6285;48.804;9.220;2022-10-31T14:20:03;14.68;;;6.90;;
12441;SDS011;6285;48.804;9.220;2022-10-31T14:23:09;15.35;;;7.15;;
12441;SDS011;6285;48.804;9.220;2022-10-31T14:25:38;16.25;;;6.80;;
12441;SDS011;6285;48.804;9.220;2022-10-31T14:28:19;14.20;;;7.15;;
12441;SDS011;6285;48.804;9.220;2022-10-31T14:30:53;11.35;;;7.20;;
12441;SDS011;6285;48.804;9.220;2022-10-31T14:33:22;11.80;;;6.80;;
12441;SDS011;6285;48.804;9.220;2022-10-31T14:35:51;13.45;;;8.50;;
12441;SDS011;6285;48.804;9.220;2022-10-31T14:38:32;10.27;;;6.68;;
12441;SDS011;6285;48.804;9.220;2022-10-31T14:41:20;15.30;;;7.20;;
12441;SDS011;6285;48.804;9.220;2022-10-31T14:44:17;15.02;;;7.03;;
12441;SDS011;6285;48.804;9.220;2022-10-31T14:47:05;12.55;;;7.05;;
12441;SDS011;6285;48.804;9.220;2022-10-31T14:49:48;11.05;;;7.18;;
12441;SDS011;6285;48.804;9.220;2022-10-31T14:52:18;14.60;;;7.28;;
12441;SDS011;6285;48.804;9.220;2022-10-31T14:54:47;11.63;;;7.50;;
12441;SDS011;6285;48.804;9.220;2022-10-31T14:57:19;12.13;;;7.00;;
12441;SDS011;6285;48.804;9.220;2022-10-31T14:59:50;14.80;;;7.75;;
12441;SDS011;6285;48.804;9.220;2022-10-31T15:02:19;18.65;;;9.57;;
12441;SDS011;6285;48.804;9.220;2022-10-31T15:04:47;15.48;;;8.70;;
12441;SDS011;6285;48.804;9.220;2022-10-31T15:07:16;10.43;;;7.43;;
12441;SDS011;6285;48.804;9.220;2022-10-31T15:09:44;14.40;;;7.43;;
12441;SDS011;6285;48.804;9.220;2022-10-31T15:12:22;16.02;;;7.80;;
12441;SDS011;6285;48.804;9.220;2022-10-31T15:14:51;10.02;;;7.20;;